sensor_id;sensor_type;location;lat;lon;timestamp;temperature;humidity
43808;DHT22;29438;50.664;10.098;2023-07-24T00:02:13;16.90;77.30
43808;DHT22;29438;50.664;10.098;2023-07-24T00:04:39;16.80;77.30
43808;DHT22;29438;50.664;10.098;2023-07-24T00:07:04;16.80;77.50
43808;DHT22;29438;50.664;10.098;2023-07-24T00:09:30;16.90;77.40
43808;DHT22;29438;50.664;10.098;2023-07-24T00:11:55;16.90;76.90
43808;DHT22;29438;50.664;10.098;2023-07-24T00:14:21;16.90;77.10
43808;DHT22;29438;50.664;10.098;2023-07-24T00:16:46;16.80;76.80
43808;DHT22;29438;50.664;10.098;2023-07-24T00:19:12;16.80;76.80
43808;DHT22;29438;50.664;10.098;2023-07-24T00:21:38;16.70;76.70
43808;DHT22;29438;50.664;10.098;2023-07-24T00:24:03;16.80;76.50
43808;DHT22;29438;50.664;10.098;2023-07-24T00:26:29;16.70;76.20
43808;DHT22;29438;50.664;10.098;2023-07-24T00:28:55;16.80;76.00
43808;DHT22;29438;50.664;10.098;2023-07-24T00:31:20;16.70;76.10
43808;DHT22;29438;50.664;10.098;2023-07-24T00:33:46;16.70;76.10
43808;DHT22;29438;50.664;10.098;2023-07-24T00:36:11;16.70;76.00
43808;DHT22;29438;50.664;10.098;2023-07-24T00:38:37;16.70;75.60
43808;DHT22;29438;50.664;10.098;2023-07-24T00:41:02;16.80;75.80
43808;DHT22;29438;50.664;10.098;2023-07-24T00:43:28;16.80;75.70
43808;DHT22;29438;50.664;10.098;2023-07-24T00:45:54;16.80;75.70
43808;DHT22;29438;50.664;10.098;2023-07-24T00:48:21;16.90;75.00
43808;DHT22;29438;50.664;10.098;2023-07-24T00:50:47;17.00;75.20
43808;DHT22;29438;50.664;10.098;2023-07-24T00:53:13;17.00;75.40
43808;DHT22;29438;50.664;10.098;2023-07-24T00:55:41;17.00;75.30
43808;DHT22;29438;50.664;10.098;2023-07-24T00:58:08;16.90;75.00
43808;DHT22;29438;50.664;10.098;2023-07-24T01:00:37;17.00;74.90
43808;DHT22;29438;50.664;10.098;2023-07-24T01:03:03;17.10;74.60
43808;DHT22;29438;50.664;10.098;2023-07-24T01:05:29;17.10;74.40
43808;DHT22;29438;50.664;10.098;2023-07-24T01:07:55;17.00;74.60
43808;DHT22;29438;50.664;10.098;2023-07-24T01:10:20;16.90;75.10
43808;DHT22;29438;50.664;10.098;2023-07-24T01:13:05;16.70;75.40
43808;DHT22;29438;50.664;10.098;2023-07-24T01:15:50;16.60;75.90
43808;DHT22;29438;50.664;10.098;2023-07-24T01:18:18;16.70;75.90
43808;DHT22;29438;50.664;10.098;2023-07-24T01:20:50;16.70;75.80
43808;DHT22;29438;50.664;10.098;2023-07-24T01:25:58;16.60;76.00
43808;DHT22;29438;50.664;10.098;2023-07-24T01:28:27;16.80;75.30
43808;DHT22;29438;50.664;10.098;2023-07-24T01:30:54;17.00;74.70
43808;DHT22;29438;50.664;10.098;2023-07-24T01:33:21;17.00;74.60
43808;DHT22;29438;50.664;10.098;2023-07-24T01:35:50;17.10;74.20
43808;DHT22;29438;50.664;10.098;2023-07-24T01:38:18;17.10;74.00
43808;DHT22;29438;50.664;10.098;2023-07-24T01:40:45;17.20;73.30
43808;DHT22;29438;50.664;10.098;2023-07-24T01:43:11;17.30;73.20
43808;DHT22;29438;50.664;10.098;2023-07-24T01:45:36;17.30;73.20
43808;DHT22;29438;50.664;10.098;2023-07-24T01:48:03;17.20;73.70
43808;DHT22;29438;50.664;10.098;2023-07-24T01:50:29;17.10;73.90
43808;DHT22;29438;50.664;10.098;2023-07-24T01:52:55;17.20;73.80
43808;DHT22;29438;50.664;10.098;2023-07-24T01:55:20;17.20;73.70
43808;DHT22;29438;50.664;10.098;2023-07-24T01:57:46;17.10;73.90
43808;DHT22;29438;50.664;10.098;2023-07-24T02:00:12;17.10;74.10
43808;DHT22;29438;50.664;10.098;2023-07-24T02:02:37;17.00;74.20
43808;DHT22;29438;50.664;10.098;2023-07-24T02:05:03;17.00;74.20
43808;DHT22;29438;50.664;10.098;2023-07-24T02:07:29;17.00;74.40
43808;DHT22;29438;50.664;10.098;2023-07-24T02:09:55;17.20;73.90
43808;DHT22;29438;50.664;10.098;2023-07-24T02:12:20;17.30;73.30
43808;DHT22;29438;50.664;10.098;2023-07-24T02:14:46;17.40;72.90
43808;DHT22;29438;50.664;10.098;2023-07-24T02:17:15;17.50;72.80
43808;DHT22;29438;50.664;10.098;2023-07-24T02:19:41;17.40;72.80
43808;DHT22;29438;50.664;10.098;2023-07-24T02:22:06;17.30;73.20
43808;DHT22;29438;50.664;10.098;2023-07-24T02:24:32;17.20;73.60
43808;DHT22;29438;50.664;10.098;2023-07-24T02:26:57;17.20;73.70
43808;DHT22;29438;50.664;10.098;2023-07-24T02:29:23;17.30;73.50
43808;DHT22;29438;50.664;10.098;2023-07-24T02:31:49;17.20;73.50
43808;DHT22;29438;50.664;10.098;2023-07-24T02:34:15;17.20;73.70
43808;DHT22;29438;50.664;10.098;2023-07-24T02:36:40;17.20;74.00
43808;DHT22;29438;50.664;10.098;2023-07-24T02:39:07;17.10;74.10
43808;DHT22;29438;50.664;10.098;2023-07-24T02:41:32;17.10;74.00
43808;DHT22;29438;50.664;10.098;2023-07-24T02:43:58;17.20;73.90
43808;DHT22;29438;50.664;10.098;2023-07-24T02:46:23;17.00;74.50
43808;DHT22;29438;50.664;10.098;2023-07-24T02:48:53;17.00;74.60
43808;DHT22;29438;50.664;10.098;2023-07-24T02:51:19;16.90;74.70
43808;DHT22;29438;50.664;10.098;2023-07-24T02:53:44;17.10;74.40
43808;DHT22;29438;50.664;10.098;2023-07-24T02:56:10;17.20;74.40
43808;DHT22;29438;50.664;10.098;2023-07-24T02:58:35;17.20;74.30
43808;DHT22;29438;50.664;10.098;2023-07-24T03:01:04;17.20;74.30
43808;DHT22;29438;50.664;10.098;2023-07-24T03:03:35;17.10;74.40
43808;DHT22;29438;50.664;10.098;2023-07-24T03:06:01;17.20;74.10
43808;DHT22;29438;50.664;10.098;2023-07-24T03:08:26;17.20;73.80
43808;DHT22;29438;50.664;10.098;2023-07-24T03:10:52;17.20;74.20
43808;DHT22;29438;50.664;10.098;2023-07-24T03:13:17;17.20;74.10
43808;DHT22;29438;50.664;10.098;2023-07-24T03:15:43;17.20;74.30
43808;DHT22;29438;50.664;10.098;2023-07-24T03:18:08;17.20;74.30
43808;DHT22;29438;50.664;10.098;2023-07-24T03:20:34;17.10;74.80
43808;DHT22;29438;50.664;10.098;2023-07-24T03:22:59;17.00;74.90
43808;DHT22;29438;50.664;10.098;2023-07-24T03:25:25;17.00;75.10
43808;DHT22;29438;50.664;10.098;2023-07-24T03:27:50;16.90;75.30
43808;DHT22;29438;50.664;10.098;2023-07-24T03:30:16;16.80;75.40
43808;DHT22;29438;50.664;10.098;2023-07-24T03:32:42;16.80;75.80
43808;DHT22;29438;50.664;10.098;2023-07-24T03:35:07;16.70;75.80
43808;DHT22;29438;50.664;10.098;2023-07-24T03:37:34;16.70;75.80
43808;DHT22;29438;50.664;10.098;2023-07-24T03:40:00;16.70;76.10
43808;DHT22;29438;50.664;10.098;2023-07-24T03:42:27;16.60;76.10
43808;DHT22;29438;50.664;10.098;2023-07-24T03:44:53;16.50;76.40
43808;DHT22;29438;50.664;10.098;2023-07-24T03:47:19;16.50;76.40
43808;DHT22;29438;50.664;10.098;2023-07-24T03:49:44;16.50;76.40
43808;DHT22;29438;50.664;10.098;2023-07-24T03:52:10;16.50;76.80
43808;DHT22;29438;50.664;10.098;2023-07-24T03:54:35;16.40;76.70
43808;DHT22;29438;50.664;10.098;2023-07-24T03:57:01;16.40;76.80
43808;DHT22;29438;50.664;10.098;2023-07-24T03:59:26;16.30;76.90
43808;DHT22;29438;50.664;10.098;2023-07-24T04:01:52;16.30;77.10
43808;DHT22;29438;50.664;10.098;2023-07-24T04:04:17;16.30;77.20
43808;DHT22;29438;50.664;10.098;2023-07-24T04:06:43;16.50;77.10
43808;DHT22;29438;50.664;10.098;2023-07-24T04:09:08;16.60;77.00
43808;DHT22;29438;50.664;10.098;2023-07-24T04:11:36;16.70;76.80
43808;DHT22;29438;50.664;10.098;2023-07-24T04:14:03;16.90;76.00
43808;DHT22;29438;50.664;10.098;2023-07-24T04:16:29;17.20;75.00
43808;DHT22;29438;50.664;10.098;2023-07-24T04:18:54;17.40;74.10
43808;DHT22;29438;50.664;10.098;2023-07-24T04:21:20;17.70;73.40
43808;DHT22;29438;50.664;10.098;2023-07-24T04:23:45;17.90;72.60
43808;DHT22;29438;50.664;10.098;2023-07-24T04:26:11;18.20;71.60
43808;DHT22;29438;50.664;10.098;2023-07-24T04:28:36;18.50;70.40
43808;DHT22;29438;50.664;10.098;2023-07-24T04:31:02;18.80;69.40
43808;DHT22;29438;50.664;10.098;2023-07-24T04:33:27;19.10;68.80
43808;DHT22;29438;50.664;10.098;2023-07-24T04:35:55;19.20;67.80
43808;DHT22;29438;50.664;10.098;2023-07-24T04:38:21;19.30;67.40
43808;DHT22;29438;50.664;10.098;2023-07-24T04:40:46;19.40;67.40
43808;DHT22;29438;50.664;10.098;2023-07-24T04:43:12;19.50;66.60
43808;DHT22;29438;50.664;10.098;2023-07-24T04:45:37;19.60;66.10
43808;DHT22;29438;50.664;10.098;2023-07-24T04:48:03;19.70;65.80
43808;DHT22;29438;50.664;10.098;2023-07-24T04:50:29;19.80;65.10
43808;DHT22;29438;50.664;10.098;2023-07-24T04:52:55;19.90;64.60
43808;DHT22;29438;50.664;10.098;2023-07-24T04:55:20;21.10;62.70
43808;DHT22;29438;50.664;10.098;2023-07-24T04:57:47;23.30;55.40
43808;DHT22;29438;50.664;10.098;2023-07-24T05:00:12;23.30;54.40
43808;DHT22;29438;50.664;10.098;2023-07-24T05:02:38;22.20;56.50
43808;DHT22;29438;50.664;10.098;2023-07-24T05:05:04;21.60;59.10
43808;DHT22;29438;50.664;10.098;2023-07-24T05:07:30;21.00;60.40
43808;DHT22;29438;50.664;10.098;2023-07-24T05:09:55;20.60;61.30
43808;DHT22;29438;50.664;10.098;2023-07-24T05:12:21;20.50;61.40
43808;DHT22;29438;50.664;10.098;2023-07-24T05:14:46;20.60;61.60
43808;DHT22;29438;50.664;10.098;2023-07-24T05:17:12;20.70;61.70
43808;DHT22;29438;50.664;10.098;2023-07-24T05:19:38;20.70;61.80
43808;DHT22;29438;50.664;10.098;2023-07-24T05:22:03;20.80;61.70
43808;DHT22;29438;50.664;10.098;2023-07-24T05:24:29;21.30;60.90
43808;DHT22;29438;50.664;10.098;2023-07-24T05:26:54;21.60;60.10
43808;DHT22;29438;50.664;10.098;2023-07-24T05:29:20;21.70;60.30
43808;DHT22;29438;50.664;10.098;2023-07-24T05:31:45;21.80;59.40
43808;DHT22;29438;50.664;10.098;2023-07-24T05:34:11;22.70;57.50
43808;DHT22;29438;50.664;10.098;2023-07-24T05:36:37;24.30;52.90
43808;DHT22;29438;50.664;10.098;2023-07-24T05:39:02;27.30;47.00
43808;DHT22;29438;50.664;10.098;2023-07-24T05:41:28;29.10;41.00
43808;DHT22;29438;50.664;10.098;2023-07-24T05:43:53;29.00;41.60
43808;DHT22;29438;50.664;10.098;2023-07-24T05:46:19;29.50;39.90
43808;DHT22;29438;50.664;10.098;2023-07-24T05:48:44;31.10;36.30
43808;DHT22;29438;50.664;10.098;2023-07-24T05:51:10;28.90;40.00
43808;DHT22;29438;50.664;10.098;2023-07-24T05:53:35;26.90;42.60
43808;DHT22;29438;50.664;10.098;2023-07-24T05:56:02;25.20;47.00
43808;DHT22;29438;50.664;10.098;2023-07-24T05:58:28;24.40;50.70
43808;DHT22;29438;50.664;10.098;2023-07-24T06:00:53;23.60;50.60
43808;DHT22;29438;50.664;10.098;2023-07-24T06:03:21;23.00;52.30
43808;DHT22;29438;50.664;10.098;2023-07-24T06:05:49;22.80;53.50
43808;DHT22;29438;50.664;10.098;2023-07-24T06:08:15;22.70;54.40
43808;DHT22;29438;50.664;10.098;2023-07-24T06:10:40;22.70;54.30
43808;DHT22;29438;50.664;10.098;2023-07-24T06:13:06;22.40;55.00
43808;DHT22;29438;50.664;10.098;2023-07-24T06:15:31;22.70;54.50
43808;DHT22;29438;50.664;10.098;2023-07-24T06:17:57;22.90;54.50
43808;DHT22;29438;50.664;10.098;2023-07-24T06:20:22;23.20;53.40
43808;DHT22;29438;50.664;10.098;2023-07-24T06:22:48;23.50;53.30
43808;DHT22;29438;50.664;10.098;2023-07-24T06:25:14;23.70;52.00
43808;DHT22;29438;50.664;10.098;2023-07-24T06:27:39;23.80;52.40
43808;DHT22;29438;50.664;10.098;2023-07-24T06:30:05;23.90;52.70
43808;DHT22;29438;50.664;10.098;2023-07-24T06:32:31;24.30;51.30
43808;DHT22;29438;50.664;10.098;2023-07-24T06:34:56;24.40;49.80
43808;DHT22;29438;50.664;10.098;2023-07-24T06:37:22;24.20;50.50
43808;DHT22;29438;50.664;10.098;2023-07-24T06:39:47;24.40;51.10
43808;DHT22;29438;50.664;10.098;2023-07-24T06:42:13;24.80;50.90
43808;DHT22;29438;50.664;10.098;2023-07-24T06:44:38;25.30;47.80
43808;DHT22;29438;50.664;10.098;2023-07-24T06:47:04;25.10;48.20
43808;DHT22;29438;50.664;10.098;2023-07-24T06:49:29;24.60;49.00
43808;DHT22;29438;50.664;10.098;2023-07-24T06:51:55;23.80;50.80
43808;DHT22;29438;50.664;10.098;2023-07-24T06:54:20;23.80;51.70
43808;DHT22;29438;50.664;10.098;2023-07-24T06:56:46;24.00;52.20
43808;DHT22;29438;50.664;10.098;2023-07-24T06:59:11;24.40;49.70
43808;DHT22;29438;50.664;10.098;2023-07-24T07:01:37;25.20;48.80
43808;DHT22;29438;50.664;10.098;2023-07-24T07:04:02;25.70;48.30
43808;DHT22;29438;50.664;10.098;2023-07-24T07:06:28;25.70;47.10
43808;DHT22;29438;50.664;10.098;2023-07-24T07:08:53;25.50;48.00
43808;DHT22;29438;50.664;10.098;2023-07-24T07:11:19;25.50;46.50
43808;DHT22;29438;50.664;10.098;2023-07-24T07:13:44;26.20;46.30
43808;DHT22;29438;50.664;10.098;2023-07-24T07:16:10;27.50;43.70
43808;DHT22;29438;50.664;10.098;2023-07-24T07:18:35;28.20;42.30
43808;DHT22;29438;50.664;10.098;2023-07-24T07:21:01;28.70;41.10
43808;DHT22;29438;50.664;10.098;2023-07-24T07:23:27;28.70;41.50
43808;DHT22;29438;50.664;10.098;2023-07-24T07:25:52;28.50;41.20
43808;DHT22;29438;50.664;10.098;2023-07-24T07:28:18;28.00;41.50
43808;DHT22;29438;50.664;10.098;2023-07-24T07:30:44;27.40;42.60
43808;DHT22;29438;50.664;10.098;2023-07-24T07:33:10;28.10;42.30
43808;DHT22;29438;50.664;10.098;2023-07-24T07:35:36;28.20;42.00
43808;DHT22;29438;50.664;10.098;2023-07-24T07:38:02;28.80;40.00
43808;DHT22;29438;50.664;10.098;2023-07-24T07:40:28;29.60;40.20
43808;DHT22;29438;50.664;10.098;2023-07-24T07:42:54;30.30;39.00
43808;DHT22;29438;50.664;10.098;2023-07-24T07:45:21;30.50;36.70
43808;DHT22;29438;50.664;10.098;2023-07-24T07:47:46;31.40;36.50
43808;DHT22;29438;50.664;10.098;2023-07-24T07:50:12;32.90;34.00
43808;DHT22;29438;50.664;10.098;2023-07-24T07:52:38;32.90;33.50
43808;DHT22;29438;50.664;10.098;2023-07-24T07:55:04;33.80;32.10
43808;DHT22;29438;50.664;10.098;2023-07-24T07:57:33;33.50;32.80
43808;DHT22;29438;50.664;10.098;2023-07-24T07:59:59;33.00;34.30
43808;DHT22;29438;50.664;10.098;2023-07-24T08:02:24;33.40;33.00
43808;DHT22;29438;50.664;10.098;2023-07-24T08:04:50;33.90;31.50
43808;DHT22;29438;50.664;10.098;2023-07-24T08:07:15;33.70;32.60
43808;DHT22;29438;50.664;10.098;2023-07-24T08:09:41;34.50;30.90
43808;DHT22;29438;50.664;10.098;2023-07-24T08:12:07;33.70;31.50
43808;DHT22;29438;50.664;10.098;2023-07-24T08:14:32;34.10;31.00
43808;DHT22;29438;50.664;10.098;2023-07-24T08:16:58;33.40;31.60
43808;DHT22;29438;50.664;10.098;2023-07-24T08:19:23;33.60;32.10
43808;DHT22;29438;50.664;10.098;2023-07-24T08:21:52;33.60;32.20
43808;DHT22;29438;50.664;10.098;2023-07-24T08:24:18;34.60;30.60
43808;DHT22;29438;50.664;10.098;2023-07-24T08:26:43;34.70;30.90
43808;DHT22;29438;50.664;10.098;2023-07-24T08:29:09;34.30;31.40
43808;DHT22;29438;50.664;10.098;2023-07-24T08:31:34;35.10;30.30
43808;DHT22;29438;50.664;10.098;2023-07-24T08:34:00;35.10;29.90
43808;DHT22;29438;50.664;10.098;2023-07-24T08:36:25;34.60;30.30
43808;DHT22;29438;50.664;10.098;2023-07-24T08:38:51;34.10;31.30
43808;DHT22;29438;50.664;10.098;2023-07-24T08:41:16;33.00;31.90
43808;DHT22;29438;50.664;10.098;2023-07-24T08:43:43;31.60;34.50
43808;DHT22;29438;50.664;10.098;2023-07-24T08:46:09;31.30;35.50
43808;DHT22;29438;50.664;10.098;2023-07-24T08:48:39;32.30;33.90
43808;DHT22;29438;50.664;10.098;2023-07-24T08:51:07;31.80;35.90
43808;DHT22;29438;50.664;10.098;2023-07-24T08:53:34;32.60;34.10
43808;DHT22;29438;50.664;10.098;2023-07-24T08:56:04;31.70;34.20
43808;DHT22;29438;50.664;10.098;2023-07-24T08:58:30;30.70;36.10
43808;DHT22;29438;50.664;10.098;2023-07-24T09:00:57;30.40;37.20
43808;DHT22;29438;50.664;10.098;2023-07-24T09:03:22;30.20;37.60
43808;DHT22;29438;50.664;10.098;2023-07-24T09:05:48;31.10;37.20
43808;DHT22;29438;50.664;10.098;2023-07-24T09:08:14;32.50;35.30
43808;DHT22;29438;50.664;10.098;2023-07-24T09:10:40;31.70;35.10
43808;DHT22;29438;50.664;10.098;2023-07-24T09:13:05;31.70;35.60
43808;DHT22;29438;50.664;10.098;2023-07-24T09:15:43;32.60;33.80
43808;DHT22;29438;50.664;10.098;2023-07-24T09:18:09;31.50;36.10
43808;DHT22;29438;50.664;10.098;2023-07-24T09:20:40;31.20;35.70
43808;DHT22;29438;50.664;10.098;2023-07-24T09:23:06;30.60;36.80
43808;DHT22;29438;50.664;10.098;2023-07-24T09:25:33;30.70;38.20
43808;DHT22;29438;50.664;10.098;2023-07-24T09:27:59;29.20;39.20
43808;DHT22;29438;50.664;10.098;2023-07-24T09:30:25;28.80;39.50
43808;DHT22;29438;50.664;10.098;2023-07-24T09:32:54;28.30;41.80
43808;DHT22;29438;50.664;10.098;2023-07-24T09:35:21;28.20;42.90
43808;DHT22;29438;50.664;10.098;2023-07-24T09:38:03;28.60;40.90
43808;DHT22;29438;50.664;10.098;2023-07-24T09:40:36;29.50;40.30
43808;DHT22;29438;50.664;10.098;2023-07-24T09:43:02;29.70;40.00
43808;DHT22;29438;50.664;10.098;2023-07-24T09:45:28;29.50;40.80
43808;DHT22;29438;50.664;10.098;2023-07-24T09:47:54;29.60;39.90
43808;DHT22;29438;50.664;10.098;2023-07-24T09:50:22;29.70;39.70
43808;DHT22;29438;50.664;10.098;2023-07-24T09:52:48;29.10;41.60
43808;DHT22;29438;50.664;10.098;2023-07-24T09:55:19;29.10;41.60
43808;DHT22;29438;50.664;10.098;2023-07-24T09:57:46;28.90;41.60
43808;DHT22;29438;50.664;10.098;2023-07-24T10:00:14;29.70;40.70
43808;DHT22;29438;50.664;10.098;2023-07-24T10:02:40;29.90;39.90
43808;DHT22;29438;50.664;10.098;2023-07-24T10:05:06;31.30;37.30
43808;DHT22;29438;50.664;10.098;2023-07-24T10:07:32;31.50;36.60
43808;DHT22;29438;50.664;10.098;2023-07-24T10:09:58;30.70;37.80
43808;DHT22;29438;50.664;10.098;2023-07-24T10:12:24;30.80;38.20
43808;DHT22;29438;50.664;10.098;2023-07-24T10:14:54;30.50;38.40
43808;DHT22;29438;50.664;10.098;2023-07-24T10:17:40;30.10;38.90
43808;DHT22;29438;50.664;10.098;2023-07-24T10:20:08;29.50;39.80
43808;DHT22;29438;50.664;10.098;2023-07-24T10:22:37;28.60;41.70
43808;DHT22;29438;50.664;10.098;2023-07-24T10:25:07;29.50;41.00
43808;DHT22;29438;50.664;10.098;2023-07-24T10:27:36;28.90;41.10
43808;DHT22;29438;50.664;10.098;2023-07-24T10:30:05;28.90;41.20
43808;DHT22;29438;50.664;10.098;2023-07-24T10:32:32;29.70;40.00
43808;DHT22;29438;50.664;10.098;2023-07-24T10:35:08;29.70;39.40
43808;DHT22;29438;50.664;10.098;2023-07-24T10:37:35;29.30;40.50
43808;DHT22;29438;50.664;10.098;2023-07-24T10:40:02;29.70;39.70
43808;DHT22;29438;50.664;10.098;2023-07-24T10:42:28;30.10;39.50
43808;DHT22;29438;50.664;10.098;2023-07-24T10:45:05;29.60;41.20
43808;DHT22;29438;50.664;10.098;2023-07-24T10:47:32;29.10;41.30
43808;DHT22;29438;50.664;10.098;2023-07-24T10:49:58;29.70;41.20
43808;DHT22;29438;50.664;10.098;2023-07-24T10:52:33;30.50;40.00
43808;DHT22;29438;50.664;10.098;2023-07-24T10:55:02;30.70;38.70
43808;DHT22;29438;50.664;10.098;2023-07-24T10:57:29;31.10;38.20
43808;DHT22;29438;50.664;10.098;2023-07-24T10:59:55;30.30;38.40
43808;DHT22;29438;50.664;10.098;2023-07-24T11:02:20;29.60;39.00
43808;DHT22;29438;50.664;10.098;2023-07-24T11:04:46;28.90;40.80
43808;DHT22;29438;50.664;10.098;2023-07-24T11:07:13;28.60;41.10
43808;DHT22;29438;50.664;10.098;2023-07-24T11:09:39;27.90;42.60
43808;DHT22;29438;50.664;10.098;2023-07-24T11:12:13;27.90;42.90
43808;DHT22;29438;50.664;10.098;2023-07-24T11:14:49;27.90;42.70
43808;DHT22;29438;50.664;10.098;2023-07-24T11:17:14;28.20;42.30
43808;DHT22;29438;50.664;10.098;2023-07-24T11:19:40;28.10;42.00
43808;DHT22;29438;50.664;10.098;2023-07-24T11:22:07;27.40;43.80
43808;DHT22;29438;50.664;10.098;2023-07-24T11:24:32;27.30;44.80
43808;DHT22;29438;50.664;10.098;2023-07-24T11:26:58;27.70;44.80
43808;DHT22;29438;50.664;10.098;2023-07-24T11:29:23;28.20;43.60
43808;DHT22;29438;50.664;10.098;2023-07-24T11:31:55;28.30;42.30
43808;DHT22;29438;50.664;10.098;2023-07-24T11:34:22;28.10;43.80
43808;DHT22;29438;50.664;10.098;2023-07-24T11:36:48;27.90;43.70
43808;DHT22;29438;50.664;10.098;2023-07-24T11:39:22;28.20;42.90
43808;DHT22;29438;50.664;10.098;2023-07-24T11:41:47;28.20;41.00
43808;DHT22;29438;50.664;10.098;2023-07-24T11:44:13;28.20;40.80
43808;DHT22;29438;50.664;10.098;2023-07-24T11:46:42;28.20;41.20
43808;DHT22;29438;50.664;10.098;2023-07-24T11:49:08;28.00;40.40
43808;DHT22;29438;50.664;10.098;2023-07-24T11:51:37;28.10;40.00
43808;DHT22;29438;50.664;10.098;2023-07-24T11:54:11;28.20;39.00
43808;DHT22;29438;50.664;10.098;2023-07-24T11:56:37;28.20;39.60
43808;DHT22;29438;50.664;10.098;2023-07-24T11:59:13;28.50;39.50
43808;DHT22;29438;50.664;10.098;2023-07-24T12:01:38;28.70;39.50
43808;DHT22;29438;50.664;10.098;2023-07-24T12:04:04;28.30;39.30
43808;DHT22;29438;50.664;10.098;2023-07-24T12:06:33;28.40;40.30
43808;DHT22;29438;50.664;10.098;2023-07-24T12:09:05;28.70;38.90
43808;DHT22;29438;50.664;10.098;2023-07-24T12:11:32;28.90;39.10
43808;DHT22;29438;50.664;10.098;2023-07-24T12:13:57;29.20;39.40
43808;DHT22;29438;50.664;10.098;2023-07-24T12:16:23;28.70;39.10
43808;DHT22;29438;50.664;10.098;2023-07-24T12:18:49;28.10;40.50
43808;DHT22;29438;50.664;10.098;2023-07-24T12:21:14;28.20;41.20
43808;DHT22;29438;50.664;10.098;2023-07-24T12:23:40;28.10;41.20
43808;DHT22;29438;50.664;10.098;2023-07-24T12:26:05;28.00;41.90
43808;DHT22;29438;50.664;10.098;2023-07-24T12:28:31;28.60;41.20
43808;DHT22;29438;50.664;10.098;2023-07-24T12:30:56;29.00;40.80
43808;DHT22;29438;50.664;10.098;2023-07-24T12:33:22;28.70;40.30
43808;DHT22;29438;50.664;10.098;2023-07-24T12:35:49;28.90;40.10
43808;DHT22;29438;50.664;10.098;2023-07-24T12:38:15;28.40;38.80
43808;DHT22;29438;50.664;10.098;2023-07-24T12:40:41;27.60;39.20
43808;DHT22;29438;50.664;10.098;2023-07-24T12:43:06;27.70;39.20
43808;DHT22;29438;50.664;10.098;2023-07-24T12:45:32;27.70;38.80
43808;DHT22;29438;50.664;10.098;2023-07-24T12:47:58;27.70;39.60
43808;DHT22;29438;50.664;10.098;2023-07-24T12:50:23;28.40;39.20
43808;DHT22;29438;50.664;10.098;2023-07-24T12:52:49;28.30;39.40
43808;DHT22;29438;50.664;10.098;2023-07-24T12:55:15;28.30;39.10
43808;DHT22;29438;50.664;10.098;2023-07-24T12:57:41;28.70;38.50
43808;DHT22;29438;50.664;10.098;2023-07-24T13:00:06;28.40;39.20
43808;DHT22;29438;50.664;10.098;2023-07-24T13:02:33;28.60;38.90
43808;DHT22;29438;50.664;10.098;2023-07-24T13:04:58;28.40;39.20
43808;DHT22;29438;50.664;10.098;2023-07-24T13:07:24;28.40;40.70
43808;DHT22;29438;50.664;10.098;2023-07-24T13:09:49;28.70;39.20
43808;DHT22;29438;50.664;10.098;2023-07-24T13:12:15;28.20;40.00
43808;DHT22;29438;50.664;10.098;2023-07-24T13:14:40;28.70;41.00
43808;DHT22;29438;50.664;10.098;2023-07-24T13:17:06;28.90;39.30
43808;DHT22;29438;50.664;10.098;2023-07-24T13:19:32;28.20;41.10
43808;DHT22;29438;50.664;10.098;2023-07-24T13:21:58;28.10;41.30
43808;DHT22;29438;50.664;10.098;2023-07-24T13:24:24;28.10;40.80
43808;DHT22;29438;50.664;10.098;2023-07-24T13:26:49;27.90;42.00
43808;DHT22;29438;50.664;10.098;2023-07-24T13:29:15;27.50;42.60
43808;DHT22;29438;50.664;10.098;2023-07-24T13:31:40;27.20;44.00
43808;DHT22;29438;50.664;10.098;2023-07-24T13:34:06;27.60;43.00
43808;DHT22;29438;50.664;10.098;2023-07-24T13:36:33;27.40;42.90
43808;DHT22;29438;50.664;10.098;2023-07-24T13:38:59;27.20;43.70
43808;DHT22;29438;50.664;10.098;2023-07-24T13:41:24;26.50;44.30
43808;DHT22;29438;50.664;10.098;2023-07-24T13:43:50;26.20;45.70
43808;DHT22;29438;50.664;10.098;2023-07-24T13:46:15;26.10;46.40
43808;DHT22;29438;50.664;10.098;2023-07-24T13:48:41;26.20;46.00
43808;DHT22;29438;50.664;10.098;2023-07-24T13:51:07;26.20;45.60
43808;DHT22;29438;50.664;10.098;2023-07-24T13:53:32;26.40;45.60
43808;DHT22;29438;50.664;10.098;2023-07-24T13:55:58;26.30;45.10
43808;DHT22;29438;50.664;10.098;2023-07-24T13:58:23;26.60;44.40
43808;DHT22;29438;50.664;10.098;2023-07-24T14:00:49;27.10;43.20
43808;DHT22;29438;50.664;10.098;2023-07-24T14:03:14;27.00;44.00
43808;DHT22;29438;50.664;10.098;2023-07-24T14:05:40;26.40;44.60
43808;DHT22;29438;50.664;10.098;2023-07-24T14:08:07;26.20;46.30
43808;DHT22;29438;50.664;10.098;2023-07-24T14:10:32;26.20;45.90
43808;DHT22;29438;50.664;10.098;2023-07-24T14:12:58;26.00;46.40
43808;DHT22;29438;50.664;10.098;2023-07-24T14:15:23;25.80;47.10
43808;DHT22;29438;50.664;10.098;2023-07-24T14:17:49;26.00;46.10
43808;DHT22;29438;50.664;10.098;2023-07-24T14:20:15;26.20;46.40
43808;DHT22;29438;50.664;10.098;2023-07-24T14:22:40;26.20;46.30
43808;DHT22;29438;50.664;10.098;2023-07-24T14:25:06;26.20;46.20
43808;DHT22;29438;50.664;10.098;2023-07-24T14:27:32;26.40;46.10
43808;DHT22;29438;50.664;10.098;2023-07-24T14:29:57;26.20;46.20
43808;DHT22;29438;50.664;10.098;2023-07-24T14:32:23;26.10;46.20
43808;DHT22;29438;50.664;10.098;2023-07-24T14:34:50;26.00;46.70
43808;DHT22;29438;50.664;10.098;2023-07-24T14:37:16;25.90;46.50
43808;DHT22;29438;50.664;10.098;2023-07-24T14:39:42;25.70;48.30
43808;DHT22;29438;50.664;10.098;2023-07-24T14:42:09;25.90;47.80
43808;DHT22;29438;50.664;10.098;2023-07-24T14:44:35;26.40;47.20
43808;DHT22;29438;50.664;10.098;2023-07-24T14:47:01;26.70;46.50
43808;DHT22;29438;50.664;10.098;2023-07-24T14:49:26;26.20;47.00
43808;DHT22;29438;50.664;10.098;2023-07-24T14:51:52;26.00;47.60
43808;DHT22;29438;50.664;10.098;2023-07-24T14:54:17;25.80;47.90
43808;DHT22;29438;50.664;10.098;2023-07-24T14:56:43;25.80;49.00
43808;DHT22;29438;50.664;10.098;2023-07-24T14:59:08;26.00;48.60
43808;DHT22;29438;50.664;10.098;2023-07-24T15:01:34;26.10;48.20
43808;DHT22;29438;50.664;10.098;2023-07-24T15:03:59;26.10;48.70
43808;DHT22;29438;50.664;10.098;2023-07-24T15:06:25;26.20;48.50
43808;DHT22;29438;50.664;10.098;2023-07-24T15:08:50;26.20;48.00
43808;DHT22;29438;50.664;10.098;2023-07-24T15:11:21;26.20;47.60
43808;DHT22;29438;50.664;10.098;2023-07-24T15:13:51;25.70;49.10